Time;durP1;ratioP1;P1;durP2;ratioP2;P2;SDS_P1;SDS_P2;PMS_P1;PMS_P2;Temp;Humidity;BMP_temperature;BMP_pressure;BME280_temperature;BME280_humidity;BME280_pressure;Samples;Min_cycle;Max_cycle;Signal;HPM_P1;HPM_P2
2022/06/24 00:00:48;;;;;;;4.00;3.28;;;20.60;99.90;;;;;;5091391;28;20040;-69
2022/06/24 00:03:18;;;;;;;5.15;3.28;;;20.80;99.90;;;;;;5092250;28;20400;-71
2022/06/24 00:05:47;;;;;;;7.07;3.45;;;20.50;99.90;;;;;;5091348;28;20085;-72
2022/06/24 00:08:13;;;;;;;6.38;3.55;;;20.80;99.90;;;;;;5092367;28;20127;-69
2022/06/24 00:10:39;;;;;;;4.80;3.70;;;20.40;99.70;;;;;;5092276;28;20124;-69
2022/06/24 00:13:06;;;;;;;7.90;3.80;;;20.60;99.80;;;;;;5092267;28;20059;-70
2022/06/24 00:15:34;;;;;;;4.45;3.22;;;20.70;99.90;;;;;;5092153;28;20480;-69
2022/06/24 00:18:26;;;;;;;6.22;3.30;;;20.60;99.80;;;;;;5092459;28;20055;-70
2022/06/24 00:20:52;;;;;;;6.13;3.10;;;21.00;99.90;;;;;;5088050;28;20091;-69
2022/06/24 00:23:19;;;;;;;8.00;3.30;;;20.80;99.30;;;;;;5090888;28;20097;-69
2022/06/24 00:25:46;;;;;;;5.28;3.15;;;21.00;99.10;;;;;;5092249;28;20044;-71
2022/06/24 00:28:13;;;;;;;3.42;3.13;;;20.60;98.80;;;;;;5092048;28;20119;-68
2022/06/24 00:30:49;;;;;;;4.07;3.08;;;20.70;98.60;;;;;;5092192;28;20048;-69
2022/06/24 00:33:17;;;;;;;8.20;3.38;;;20.90;98.10;;;;;;5091110;28;20373;-69
2022/06/24 00:35:56;;;;;;;4.07;3.10;;;20.70;98.50;;;;;;5091623;28;20062;-69
2022/06/24 00:38:30;;;;;;;3.75;3.22;;;21.00;98.30;;;;;;5092233;28;20127;-70
2022/06/24 00:41:13;;;;;;;3.83;2.85;;;20.90;97.70;;;;;;5092113;28;20048;-70
2022/06/24 00:43:54;;;;;;;6.25;3.25;;;20.70;98.00;;;;;;5092011;28;20040;-69
2022/06/24 00:46:39;;;;;;;6.28;3.13;;;21.00;98.70;;;;;;5091807;28;20522;-70
2022/06/24 00:49:07;;;;;;;5.40;3.50;;;21.00;98.40;;;;;;5091897;28;20052;-69
2022/06/24 00:51:36;;;;;;;5.22;3.17;;;20.80;98.20;;;;;;5091890;28;20036;-69
2022/06/24 00:54:14;;;;;;;3.20;2.90;;;21.00;98.20;;;;;;5090527;28;20488;-71
2022/06/24 00:56:40;;;;;;;5.50;3.13;;;20.80;98.00;;;;;;5091904;28;20051;-68
2022/06/24 00:59:07;;;;;;;5.05;2.90;;;21.20;97.90;;;;;;5073000;28;20346;-68
2022/06/24 01:01:35;;;;;;;4.80;3.47;;;21.00;97.80;;;;;;5091157;28;20527;-70
2022/06/24 01:04:04;;;;;;;5.53;3.10;;;21.10;97.90;;;;;;5091546;28;20043;-69
2022/06/24 01:06:30;;;;;;;4.30;3.08;;;21.00;97.80;;;;;;5091504;28;20058;-70
2022/06/24 01:08:57;;;;;;;6.85;2.85;;;21.10;97.80;;;;;;5091678;28;20103;-69
2022/06/24 01:11:28;;;;;;;8.95;3.30;;;21.00;97.90;;;;;;5091322;28;20087;-69
2022/06/24 01:13:54;;;;;;;4.65;3.00;;;20.70;97.90;;;;;;5091354;28;20095;-70
2022/06/24 01:16:24;;;;;;;4.70;2.95;;;21.00;97.90;;;;;;5090725;28;20087;-68
2022/06/24 01:18:57;;;;;;;7.68;3.08;;;20.70;97.80;;;;;;5091148;28;20040;-70
2022/06/24 01:21:32;;;;;;;7.13;2.95;;;20.70;97.20;;;;;;5091044;28;20052;-69
2022/06/24 01:24:15;;;;;;;3.35;2.85;;;20.90;97.40;;;;;;5090746;28;20557;-69
2022/06/24 01:26:43;;;;;;;4.28;2.90;;;20.80;97.80;;;;;;5091329;28;20088;-69
2022/06/24 01:29:08;;;;;;;5.35;3.25;;;21.00;97.70;;;;;;5090925;28;20044;-69
2022/06/24 01:31:35;;;;;;;3.97;2.97;;;20.80;97.70;;;;;;5090598;28;20071;-69
2022/06/24 01:34:01;;;;;;;6.65;2.85;;;21.00;97.60;;;;;;5091214;28;20131;-68
2022/06/24 01:36:27;;;;;;;6.13;2.90;;;20.80;97.50;;;;;;5091072;28;20194;-69
2022/06/24 01:38:53;;;;;;;5.07;3.05;;;20.80;97.60;;;;;;5090039;28;20044;-69
2022/06/24 01:41:19;;;;;;;5.05;3.00;;;20.80;97.90;;;;;;5091058;28;20048;-68
2022/06/24 01:43:44;;;;;;;4.15;3.10;;;20.70;97.90;;;;;;5090830;28;20177;-70
2022/06/24 01:46:11;;;;;;;4.80;3.20;;;20.60;98.20;;;;;;5090960;28;20062;-68
2022/06/24 01:48:38;;;;;;;4.95;3.05;;;20.30;98.40;;;;;;5090747;28;20040;-69
2022/06/24 01:51:05;;;;;;;4.05;2.88;;;20.30;98.50;;;;;;5090670;28;20136;-68
2022/06/24 01:53:31;;;;;;;4.28;3.05;;;20.30;98.40;;;;;;5091165;28;20052;-68
2022/06/24 01:55:57;;;;;;;6.97;3.20;;;20.00;98.10;;;;;;5090558;28;20046;-69
2022/06/24 01:58:23;;;;;;;7.53;3.38;;;20.20;98.20;;;;;;5092302;28;20487;-69
2022/06/24 02:00:50;;;;;;;5.43;3.10;;;20.50;98.30;;;;;;5094042;28;20165;-68
2022/06/24 02:03:15;;;;;;;6.63;3.17;;;20.20;98.30;;;;;;5094714;28;20132;-68
2022/06/24 02:05:41;;;;;;;4.28;3.33;;;20.20;98.40;;;;;;5094827;28;20206;-71
2022/06/24 02:08:07;;;;;;;6.70;3.30;;;20.10;98.50;;;;;;5094736;28;20052;-69
2022/06/24 02:13:26;;;;;;;5.15;3.50;;;20.00;98.50;;;;;;5094658;28;20102;-69
2022/06/24 02:15:54;;;;;;;4.30;2.97;;;20.20;99.30;;;;;;5094596;28;20130;-69
2022/06/24 02:18:20;;;;;;;4.88;3.28;;;19.80;99.50;;;;;;5094405;28;20084;-68
2022/06/24 02:20:45;;;;;;;4.20;3.20;;;19.50;99.40;;;;;;5094325;28;20084;-69
2022/06/24 02:23:12;;;;;;;4.80;3.35;;;19.90;99.70;;;;;;5094347;28;20047;-69
2022/06/24 02:25:37;;;;;;;7.15;3.58;;;19.70;99.90;;;;;;5094001;28;20051;-69
2022/06/24 02:28:03;;;;;;;7.40;3.60;;;19.30;99.90;;;;;;5093992;28;20044;-69
2022/06/24 02:30:29;;;;;;;6.15;3.40;;;19.20;99.90;;;;;;5093976;28;20132;-69
2022/06/24 02:32:55;;;;;;;4.32;3.55;;;19.40;99.90;;;;;;5093890;28;20056;-68
2022/06/24 02:35:21;;;;;;;5.75;3.60;;;19.40;99.90;;;;;;5092297;28;20060;-68
2022/06/24 02:37:47;;;;;;;4.60;3.88;;;19.30;99.90;;;;;;5094030;28;20044;-69
2022/06/24 02:42:57;;;;;;;5.95;3.40;;;19.70;99.70;;;;;;5094064;28;20185;-69
2022/06/24 02:45:23;;;;;;;4.18;3.55;;;19.60;99.90;;;;;;5093895;28;20047;-69
2022/06/24 02:47:49;;;;;;;8.88;4.25;;;19.90;99.90;;;;;;5093868;28;20557;-68
2022/06/24 02:50:15;;;;;;;4.80;3.67;;;19.70;99.90;;;;;;5093725;28;20059;-68
2022/06/24 02:52:41;;;;;;;7.65;3.83;;;19.60;99.80;;;;;;5093594;28;20052;-69
2022/06/24 02:55:07;;;;;;;6.05;3.85;;;19.50;99.80;;;;;;5093782;28;20491;-70
2022/06/24 02:57:32;;;;;;;5.80;4.35;;;19.80;99.90;;;;;;5093336;28;20046;-69
2022/06/24 02:59:58;;;;;;;6.70;3.95;;;19.20;99.80;;;;;;5093207;28;20047;-68
2022/06/24 03:02:24;;;;;;;5.68;4.13;;;19.90;99.90;;;;;;5093432;28;20147;-69
2022/06/24 03:04:49;;;;;;;6.22;4.47;;;19.80;99.90;;;;;;5093017;28;20048;-69
2022/06/24 03:07:15;;;;;;;6.25;4.10;;;19.30;99.80;;;;;;5093447;28;20079;-69
2022/06/24 03:09:41;;;;;;;8.88;4.45;;;19.60;99.80;;;;;;5092991;28;20100;-68
2022/06/24 03:12:07;;;;;;;6.13;4.20;;;19.80;99.90;;;;;;5093487;28;20048;-70
2022/06/24 03:14:33;;;;;;;8.88;4.30;;;19.80;99.60;;;;;;5092973;28;20080;-69
2022/06/24 03:16:58;;;;;;;4.38;3.97;;;19.60;99.70;;;;;;5093389;28;20522;-69
2022/06/24 03:19:24;;;;;;;5.18;4.15;;;19.60;99.90;;;;;;5091653;28;20048;-67
2022/06/24 03:21:49;;;;;;;4.70;4.20;;;19.50;99.90;;;;;;5093120;28;20092;-68
2022/06/24 03:24:15;;;;;;;8.80;4.55;;;19.50;99.90;;;;;;5093177;28;20048;-72
2022/06/24 03:26:41;;;;;;;7.88;4.18;;;19.90;99.90;;;;;;5092939;28;20098;-69
2022/06/24 03:29:07;;;;;;;5.55;4.40;;;19.60;99.90;;;;;;5092534;28;20048;-71
2022/06/24 03:31:33;;;;;;;8.23;4.43;;;19.70;99.90;;;;;;5093087;28;20081;-69
2022/06/24 03:33:58;;;;;;;5.05;4.03;;;19.70;99.90;;;;;;5091344;28;20108;-69
2022/06/24 03:36:25;;;;;;;7.65;3.88;;;18.80;99.90;;;;;;5054082;28;20094;-70
2022/06/24 03:38:51;;;;;;;11.43;4.22;;;19.60;99.90;;;;;;5071720;28;20044;-68
2022/06/24 03:41:17;;;;;;;7.32;3.97;;;19.50;99.90;;;;;;5071985;28;20048;-69
2022/06/24 03:43:42;;;;;;;7.03;4.22;;;19.60;99.90;;;;;;5072415;28;20052;-70
2022/06/24 03:46:08;;;;;;;5.00;3.85;;;19.50;99.90;;;;;;5070790;28;20052;-69
2022/06/24 03:48:34;;;;;;;5.47;4.28;;;19.50;99.90;;;;;;5072079;28;20052;-68
2022/06/24 03:50:59;;;;;;;5.65;4.35;;;19.50;99.90;;;;;;5070623;28;20058;-68
2022/06/24 03:53:25;;;;;;;7.97;4.50;;;19.60;99.90;;;;;;5072105;28;20055;-69
2022/06/24 03:55:51;;;;;;;9.25;4.60;;;19.80;99.90;;;;;;5071748;28;20086;-68
2022/06/24 03:58:20;;;;;;;8.40;4.50;;;19.60;99.90;;;;;;5070612;28;20048;-72
2022/06/24 04:00:46;;;;;;;7.72;4.60;;;19.60;99.90;;;;;;5071959;28;20063;-68
2022/06/24 04:03:12;;;;;;;4.93;4.38;;;19.80;99.90;;;;;;5070214;28;20790;-68
2022/06/24 04:05:38;;;;;;;5.85;4.60;;;19.50;99.90;;;;;;5071873;28;20040;-69
2022/06/24 04:08:04;;;;;;;4.85;4.40;;;19.70;99.90;;;;;;5071952;28;20048;-69
2022/06/24 04:10:30;;;;;;;8.35;5.13;;;19.40;99.90;;;;;;5071462;28;20469;-69
2022/06/24 04:12:55;;;;;;;9.55;5.22;;;19.50;99.90;;;;;;5071575;28;20036;-69
2022/06/24 04:15:21;;;;;;;6.72;4.70;;;19.70;99.90;;;;;;5071655;28;20131;-69
2022/06/24 04:17:48;;;;;;;8.02;4.90;;;19.70;99.90;;;;;;5071856;28;20040;-69
2022/06/24 04:20:17;;;;;;;8.68;5.07;;;19.60;99.90;;;;;;5071245;28;20056;-70
2022/06/24 04:22:43;;;;;;;7.22;5.38;;;19.80;99.90;;;;;;5071618;28;20049;-69
2022/06/24 04:25:11;;;;;;;6.97;5.28;;;19.80;99.90;;;;;;5071703;28;20065;-70
2022/06/24 04:27:37;;;;;;;6.88;4.85;;;20.10;99.90;;;;;;5071887;28;20044;-68
2022/06/24 04:30:05;;;;;;;8.95;5.32;;;19.80;99.90;;;;;;5071268;28;20202;-69
2022/06/24 04:32:31;;;;;;;5.63;5.03;;;19.50;99.90;;;;;;5071792;28;20044;-69
2022/06/24 04:34:57;;;;;;;6.97;5.00;;;19.70;99.90;;;;;;5079023;28;20054;-68
2022/06/24 04:37:22;;;;;;;7.88;5.07;;;20.00;99.90;;;;;;5091948;28;20055;-70
2022/06/24 04:39:48;;;;;;;8.07;5.32;;;19.90;99.90;;;;;;5090506;28;20146;-70
2022/06/24 04:42:14;;;;;;;11.30;5.43;;;20.00;99.90;;;;;;5091747;28;20051;-70
2022/06/24 04:44:40;;;;;;;6.03;5.32;;;19.90;99.90;;;;;;5091492;28;20040;-70
2022/06/24 04:47:05;;;;;;;9.55;5.85;;;19.70;99.90;;;;;;5091674;28;20136;-69
2022/06/24 04:49:32;;;;;;;6.05;5.43;;;20.00;99.90;;;;;;5091870;28;20387;-68
2022/06/24 04:51:58;;;;;;;8.30;5.63;;;20.00;99.90;;;;;;5091805;28;20531;-69
2022/06/24 04:54:24;;;;;;;8.05;5.40;;;19.90;99.90;;;;;;5091541;28;20140;-69
2022/06/24 04:56:51;;;;;;;7.32;5.43;;;19.90;99.90;;;;;;5091510;28;20093;-70
2022/06/24 04:59:17;;;;;;;7.55;5.28;;;20.10;99.90;;;;;;5091365;28;20052;-69
2022/06/24 05:01:42;;;;;;;6.95;5.38;;;20.40;99.90;;;;;;5090343;28;20047;-70
2022/06/24 05:04:08;;;;;;;7.03;5.85;;;20.30;99.90;;;;;;5090445;28;20051;-69
2022/06/24 05:06:34;;;;;;;6.90;5.35;;;20.30;99.90;;;;;;5091071;28;20052;-69
2022/06/24 05:08:59;;;;;;;8.60;5.53;;;20.50;99.90;;;;;;5090912;28;20051;-69
2022/06/24 05:11:25;;;;;;;8.98;5.32;;;20.70;99.90;;;;;;5090897;28;20048;-69
2022/06/24 05:13:51;;;;;;;11.07;5.57;;;20.60;99.90;;;;;;5091004;28;20779;-69
2022/06/24 05:16:17;;;;;;;8.60;6.05;;;20.50;99.90;;;;;;5091207;28;20055;-69
2022/06/24 05:18:43;;;;;;;7.80;6.03;;;20.60;99.90;;;;;;5090944;28;20043;-69
2022/06/24 05:21:09;;;;;;;10.23;7.05;;;20.90;99.90;;;;;;5091072;28;20052;-70
2022/06/24 05:23:34;;;;;;;11.35;7.90;;;20.60;99.90;;;;;;5091583;28;20071;-69
2022/06/24 05:26:00;;;;;;;10.85;8.18;;;20.70;99.90;;;;;;5091036;28;20044;-69
2022/06/24 05:28:26;;;;;;;10.75;9.52;;;20.70;99.90;;;;;;5090898;28;20036;-69
2022/06/24 05:30:56;;;;;;;13.27;10.63;;;20.90;99.90;;;;;;5090147;28;20051;-69
2022/06/24 05:33:23;;;;;;;19.60;11.23;;;21.00;99.90;;;;;;5092164;28;20392;-69
2022/06/24 05:35:58;;;;;;;17.98;8.02;;;21.00;99.90;;;;;;5094291;28;20052;-73
2022/06/24 05:38:24;;;;;;;20.33;7.40;;;21.20;99.90;;;;;;5093901;28;20078;-72
2022/06/24 05:40:51;;;;;;;21.50;8.85;;;21.10;99.90;;;;;;5094101;28;20469;-70
2022/06/24 05:43:18;;;;;;;21.88;9.55;;;21.00;99.90;;;;;;5095264;28;20097;-71
2022/06/24 05:45:46;;;;;;;20.70;7.45;;;21.50;99.90;;;;;;5095236;28;20140;-71
2022/06/24 05:48:13;;;;;;;20.98;10.55;;;21.20;99.90;;;;;;5095256;28;20052;-70
2022/06/24 05:50:39;;;;;;;23.38;9.80;;;21.00;99.90;;;;;;5094200;28;20518;-72
2022/06/24 05:55:55;;;;;;;10.77;5.65;;;21.10;99.90;;;;;;5094787;28;20100;-71
2022/06/24 05:58:20;;;;;;;10.63;5.68;;;21.40;99.90;;;;;;5089236;28;20048;-70
2022/06/24 06:00:46;;;;;;;11.45;5.35;;;21.40;99.90;;;;;;5093572;28;20039;-70
2022/06/24 06:03:12;;;;;;;14.07;5.43;;;21.30;99.90;;;;;;5091890;28;20044;-70
2022/06/24 06:05:37;;;;;;;10.77;4.78;;;21.10;99.90;;;;;;5092869;28;20040;-73
2022/06/24 06:08:03;;;;;;;11.52;4.47;;;21.00;99.90;;;;;;5092244;28;20043;-72
2022/06/24 06:10:29;;;;;;;9.23;4.60;;;20.70;99.90;;;;;;5091978;28;20078;-69
2022/06/24 06:12:55;;;;;;;10.55;4.70;;;20.70;99.90;;;;;;5091624;28;20063;-70
2022/06/24 06:15:20;;;;;;;8.45;4.00;;;20.70;99.90;;;;;;5091973;28;20047;-71
2022/06/24 06:17:46;;;;;;;17.85;4.85;;;20.50;99.90;;;;;;5093033;28;20544;-75
2022/06/24 06:20:12;;;;;;;12.68;4.50;;;20.50;99.90;;;;;;5091405;28;20089;-74
2022/06/24 06:22:37;;;;;;;9.93;4.00;;;20.40;99.90;;;;;;5091025;28;20051;-74
2022/06/24 06:25:03;;;;;;;17.33;5.03;;;20.30;99.90;;;;;;5093115;28;20506;-75
2022/06/24 06:27:29;;;;;;;16.38;5.25;;;20.40;99.90;;;;;;5092253;28;20056;-71
2022/06/24 06:29:55;;;;;;;21.13;4.90;;;20.20;99.90;;;;;;5092903;28;20446;-74
2022/06/24 06:32:21;;;;;;;24.02;5.35;;;20.50;99.90;;;;;;5091914;28;20052;-76
2022/06/24 06:34:47;;;;;;;24.50;5.70;;;20.00;99.90;;;;;;5090831;28;20048;-72
2022/06/24 06:37:12;;;;;;;22.33;5.72;;;20.30;99.90;;;;;;5091741;28;20068;-71
2022/06/24 06:39:38;;;;;;;23.70;5.05;;;19.90;99.90;;;;;;5093254;28;20050;-75
2022/06/24 06:42:04;;;;;;;58.88;10.45;;;20.10;99.90;;;;;;5088050;28;20052;-65
2022/06/24 06:44:30;;;;;;;33.97;7.47;;;19.80;99.90;;;;;;5090430;28;20110;-63
2022/06/24 06:46:56;;;;;;;31.65;8.40;;;19.80;99.90;;;;;;5091372;28;20047;-62
2022/06/24 06:49:21;;;;;;;27.40;6.80;;;20.00;99.90;;;;;;5092446;28;20051;-63
2022/06/24 06:51:47;;;;;;;19.27;6.28;;;19.30;99.90;;;;;;5092438;28;20044;-63
2022/06/24 06:54:13;;;;;;;34.30;7.97;;;19.70;99.90;;;;;;5091547;28;20131;-62
2022/06/24 06:56:39;;;;;;;35.65;8.48;;;19.60;99.90;;;;;;5091545;28;20044;-62
2022/06/24 06:59:04;;;;;;;24.20;7.70;;;19.50;99.90;;;;;;5092282;28;20066;-64
2022/06/24 07:01:30;;;;;;;26.55;6.90;;;19.50;99.90;;;;;;5092329;28;20476;-66
2022/06/24 07:03:57;;;;;;;21.38;6.43;;;19.50;99.90;;;;;;5090893;28;20396;-63
2022/06/24 07:06:24;;;;;;;22.52;6.85;;;19.70;99.90;;;;;;5092016;28;20044;-64
2022/06/24 07:08:49;;;;;;;20.48;6.80;;;19.30;99.90;;;;;;5091962;28;20100;-64
2022/06/24 07:11:15;;;;;;;19.70;6.30;;;19.40;99.90;;;;;;5091273;28;20052;-66
2022/06/24 07:13:41;;;;;;;21.55;7.10;;;19.00;99.90;;;;;;5090692;28;20059;-66
2022/06/24 07:16:10;;;;;;;16.05;6.40;;;19.40;99.90;;;;;;5091905;28;20044;-67
2022/06/24 07:18:36;;;;;;;13.90;4.97;;;19.10;99.90;;;;;;5091339;28;20532;-66
2022/06/24 07:21:02;;;;;;;19.02;5.35;;;19.40;99.90;;;;;;5092134;28;20040;-66
2022/06/24 07:23:27;;;;;;;16.85;5.30;;;19.20;99.90;;;;;;5090727;28;20066;-67
2022/06/24 07:25:57;;;;;;;16.05;5.18;;;19.30;99.90;;;;;;5091049;28;20048;-67
2022/06/24 07:28:24;;;;;;;14.80;4.88;;;19.30;99.90;;;;;;5091609;28;20048;-66
2022/06/24 07:30:51;;;;;;;14.32;4.93;;;19.30;99.90;;;;;;5091759;28;20408;-67
2022/06/24 07:33:16;;;;;;;15.65;5.47;;;19.30;99.90;;;;;;5090220;28;20381;-66
2022/06/24 07:35:43;;;;;;;16.85;5.75;;;19.70;99.90;;;;;;5088391;28;20142;-65
2022/06/24 07:38:09;;;;;;;16.15;5.05;;;19.60;99.90;;;;;;5091533;28;20066;-66
2022/06/24 07:40:35;;;;;;;15.55;5.10;;;19.60;99.90;;;;;;5090760;28;20055;-64
2022/06/24 07:43:01;;;;;;;7.75;4.45;;;19.80;99.90;;;;;;5090640;28;20052;-64
2022/06/24 07:45:26;;;;;;;12.27;5.07;;;19.40;99.90;;;;;;5091519;28;20048;-68
2022/06/24 07:47:52;;;;;;;14.20;5.57;;;19.50;99.90;;;;;;5087093;28;20044;-64
2022/06/24 07:50:18;;;;;;;18.08;6.38;;;19.20;99.90;;;;;;5091574;28;20075;-73
2022/06/24 07:52:44;;;;;;;16.92;6.55;;;19.30;99.90;;;;;;5090494;28;20377;-63
2022/06/24 07:57:54;;;;;;;21.10;7.53;;;19.30;99.90;;;;;;5087367;28;20054;-63
2022/06/24 08:00:20;;;;;;;20.27;6.70;;;18.90;99.90;;;;;;5089896;28;20048;-64
2022/06/24 08:02:46;;;;;;;17.50;7.35;;;19.00;99.90;;;;;;5089697;28;20052;-69
2022/06/24 08:05:11;;;;;;;20.30;7.35;;;18.90;99.90;;;;;;5091185;28;20087;-66
2022/06/24 08:07:37;;;;;;;24.35;7.28;;;19.10;99.90;;;;;;5091149;28;20438;-65
2022/06/24 08:10:03;;;;;;;17.25;6.70;;;19.00;99.90;;;;;;5090560;28;20047;-69
2022/06/24 08:12:29;;;;;;;18.45;6.93;;;19.20;99.90;;;;;;5089216;28;20138;-66
2022/06/24 08:14:54;;;;;;;20.67;7.30;;;19.00;99.90;;;;;;5090874;28;20048;-66
2022/06/24 08:17:20;;;;;;;23.23;7.15;;;19.00;99.90;;;;;;5090398;28;20044;-65
2022/06/24 08:19:45;;;;;;;23.13;7.70;;;19.00;99.90;;;;;;5090583;28;20058;-67
2022/06/24 08:22:11;;;;;;;17.98;8.68;;;19.30;99.90;;;;;;5090782;28;20083;-66
2022/06/24 08:24:37;;;;;;;12.60;6.25;;;19.60;99.90;;;;;;5088960;28;20044;-67
2022/06/24 08:27:03;;;;;;;16.85;7.10;;;19.10;99.90;;;;;;5090197;28;20507;-70
2022/06/24 08:29:28;;;;;;;14.25;6.63;;;19.60;99.90;;;;;;5090834;28;20043;-67
2022/06/24 08:31:54;;;;;;;15.05;6.40;;;19.30;99.90;;;;;;5090219;28;20052;-66
2022/06/24 08:34:21;;;;;;;18.17;7.90;;;19.50;99.90;;;;;;5088222;28;20109;-66
2022/06/24 08:36:47;;;;;;;13.63;6.57;;;19.50;99.90;;;;;;5090676;28;20063;-67
2022/06/24 08:39:13;;;;;;;14.48;6.55;;;19.30;99.90;;;;;;5090260;28;20052;-67
2022/06/24 08:41:42;;;;;;;14.50;6.53;;;19.10;99.90;;;;;;5090358;28;20162;-67
2022/06/24 08:44:08;;;;;;;17.08;7.43;;;19.30;99.90;;;;;;5088322;28;21048;-68
2022/06/24 08:46:33;;;;;;;17.67;6.82;;;19.40;99.90;;;;;;5090009;28;20044;-67
2022/06/24 08:49:00;;;;;;;22.35;8.55;;;19.20;99.90;;;;;;5090436;28;20108;-66
2022/06/24 08:51:28;;;;;;;15.35;7.05;;;19.20;99.90;;;;;;5090600;28;20048;-65
2022/06/24 08:54:00;;;;;;;13.48;6.47;;;19.30;99.90;;;;;;5085798;28;20044;-62
2022/06/24 08:56:26;;;;;;;16.90;6.50;;;19.40;99.90;;;;;;5084186;28;20069;-63
2022/06/24 08:58:54;;;;;;;15.20;7.70;;;19.60;99.90;;;;;;5090235;28;20439;-63
2022/06/24 09:01:20;;;;;;;11.13;7.03;;;19.40;99.90;;;;;;5089401;28;21285;-63
2022/06/24 09:03:47;;;;;;;12.50;6.20;;;19.50;99.90;;;;;;5085938;28;20044;-65
2022/06/24 09:06:16;;;;;;;16.45;6.60;;;19.70;99.90;;;;;;5084830;28;20044;-64
2022/06/24 09:08:48;;;;;;;12.35;6.97;;;19.60;99.90;;;;;;5091155;28;20052;-65
2022/06/24 09:11:13;;;;;;;14.13;7.70;;;19.50;99.90;;;;;;5093181;28;20051;-66
2022/06/24 09:13:49;;;;;;;12.02;6.80;;;19.70;99.90;;;;;;5095516;28;20059;-67
2022/06/24 09:16:20;;;;;;;17.77;7.70;;;20.00;99.90;;;;;;5095185;28;20040;-65
2022/06/24 09:19:00;;;;;;;15.50;7.88;;;20.00;99.90;;;;;;5095533;28;20055;-66
2022/06/24 09:21:32;;;;;;;15.07;7.50;;;19.80;99.90;;;;;;5095205;28;20052;-66
2022/06/24 09:24:00;;;;;;;14.35;7.88;;;20.10;99.90;;;;;;5095254;28;20079;-63
2022/06/24 09:26:37;;;;;;;16.25;7.40;;;20.00;99.90;;;;;;5095369;28;20044;-67
2022/06/24 09:29:06;;;;;;;16.15;8.27;;;19.90;99.90;;;;;;5095236;28;20048;-68
2022/06/24 09:31:32;;;;;;;11.93;7.93;;;20.30;99.90;;;;;;5095443;28;20395;-63
2022/06/24 09:34:11;;;;;;;16.15;8.48;;;20.40;99.90;;;;;;5094819;28;20040;-64
2022/06/24 09:36:39;;;;;;;12.00;7.53;;;20.10;99.90;;;;;;5094285;28;20105;-64
2022/06/24 09:39:08;;;;;;;15.23;8.50;;;20.20;99.90;;;;;;5095076;28;20139;-64
2022/06/24 09:41:48;;;;;;;15.82;7.63;;;20.50;99.90;;;;;;5095194;28;20052;-65
2022/06/24 09:44:15;;;;;;;18.63;8.52;;;20.20;99.90;;;;;;5094381;28;20040;-65
2022/06/24 09:46:41;;;;;;;17.85;7.82;;;19.90;99.90;;;;;;5094748;28;20048;-66
2022/06/24 09:49:15;;;;;;;17.05;8.80;;;20.10;99.90;;;;;;5094068;28;20150;-65
2022/06/24 09:51:44;;;;;;;16.98;8.75;;;20.00;99.90;;;;;;5094672;28;20071;-64
2022/06/24 09:54:10;;;;;;;14.88;7.78;;;20.00;99.90;;;;;;5094511;28;20082;-60
2022/06/24 09:56:38;;;;;;;17.30;8.63;;;19.90;99.90;;;;;;5094313;28;20123;-65
2022/06/24 10:01:50;;;;;;;13.90;8.30;;;19.80;99.90;;;;;;5094922;28;20498;-62
2022/06/24 10:04:18;;;;;;;15.10;8.85;;;19.60;99.90;;;;;;5094246;28;20044;-60
2022/06/24 10:06:48;;;;;;;15.60;8.82;;;19.60;99.90;;;;;;5094528;28;20051;-61
2022/06/24 10:09:17;;;;;;;18.90;9.07;;;19.50;99.90;;;;;;5094803;28;20075;-61
2022/06/24 10:11:44;;;;;;;20.27;9.18;;;19.30;99.90;;;;;;5094383;28;20460;-62
2022/06/24 10:14:12;;;;;;;17.50;9.05;;;19.30;99.90;;;;;;5094594;28;20135;-62
2022/06/24 10:16:41;;;;;;;17.45;10.02;;;19.30;99.90;;;;;;5094452;28;20078;-61
2022/06/24 10:19:07;;;;;;;15.75;8.98;;;19.10;99.90;;;;;;5100921;28;20051;-62
2022/06/24 10:21:34;;;;;;;16.02;9.23;;;19.20;99.90;;;;;;5092425;28;20134;-60
2022/06/24 10:24:09;;;;;;;14.63;9.63;;;19.30;99.90;;;;;;5092640;28;20547;-61
2022/06/24 10:26:38;;;;;;;29.17;10.02;;;19.40;99.90;;;;;;5094402;28;20040;-60
2022/06/24 10:29:15;;;;;;;18.55;8.85;;;18.70;99.90;;;;;;5094586;28;20047;-60
2022/06/24 10:31:54;;;;;;;11.93;7.47;;;18.70;99.90;;;;;;5093324;28;20543;-60
2022/06/24 10:34:22;;;;;;;22.80;8.73;;;18.80;99.90;;;;;;5093892;28;20547;-62
2022/06/24 10:36:58;;;;;;;55.70;11.27;;;18.80;99.90;;;;;;5093319;28;20055;-63
2022/06/24 10:39:26;;;;;;;47.08;11.65;;;20.60;99.90;;;;;;5093942;28;20518;-60
2022/06/24 10:42:14;;;;;;;20.90;8.38;;;18.60;99.90;;;;;;5094281;28;20373;-61
2022/06/24 10:44:51;;;;;;;15.88;7.13;;;18.60;99.90;;;;;;5093833;28;20048;-61
2022/06/24 10:47:18;;;;;;;16.05;5.38;;;18.30;99.90;;;;;;5093586;28;20527;-61
2022/06/24 10:50:12;;;;;;;6.50;4.90;;;18.30;99.90;;;;;;5093818;28;20052;-61
2022/06/24 10:52:37;;;;;;;5.88;4.03;;;17.90;99.90;;;;;;5093736;28;20059;-60
2022/06/24 10:55:15;;;;;;;9.15;4.45;;;17.90;99.90;;;;;;5094083;28;20083;-60
2022/06/24 10:57:42;;;;;;;7.25;4.43;;;17.80;99.90;;;;;;5094063;28;20105;-62
2022/06/24 11:00:16;;;;;;;6.70;4.40;;;17.60;99.90;;;;;;5094052;28;20073;-63
2022/06/24 11:02:44;;;;;;;5.93;4.45;;;17.60;99.90;;;;;;5093951;28;20059;-62
2022/06/24 11:05:15;;;;;;;7.28;4.97;;;17.80;99.90;;;;;;5093925;28;20047;-61
2022/06/24 11:07:45;;;;;;;5.25;4.63;;;17.50;99.90;;;;;;5093887;28;20068;-61
2022/06/24 11:10:24;;;;;;;24.10;5.57;;;17.70;99.90;;;;;;5093797;28;20052;-61
2022/06/24 11:12:54;;;;;;;7.45;5.38;;;17.50;99.90;;;;;;5093827;28;20105;-61
2022/06/24 11:15:34;;;;;;;8.02;5.40;;;17.70;99.90;;;;;;5092068;28;20090;-61
2022/06/24 11:18:21;;;;;;;11.57;5.65;;;17.60;99.90;;;;;;5093671;28;20135;-60
2022/06/24 11:20:56;;;;;;;10.20;5.50;;;17.90;99.90;;;;;;5090552;28;20400;-61
2022/06/24 11:23:24;;;;;;;8.75;4.47;;;17.90;99.90;;;;;;5091934;28;20484;-68
2022/06/24 11:25:57;;;;;;;8.07;5.30;;;17.70;99.90;;;;;;5091539;28;20396;-60
2022/06/24 11:28:24;;;;;;;8.98;5.55;;;18.00;99.90;;;;;;5091802;28;20048;-62
2022/06/24 11:30:52;;;;;;;9.48;5.35;;;18.20;99.90;;;;;;5090971;28;20396;-61
2022/06/24 11:33:18;;;;;;;6.40;5.30;;;18.40;99.90;;;;;;5091910;28;20491;-61
2022/06/24 11:35:48;;;;;;;8.60;5.75;;;18.10;99.90;;;;;;5089692;28;20060;-62
2022/06/24 11:38:15;;;;;;;9.30;5.32;;;18.00;99.90;;;;;;5092104;28;20079;-61
2022/06/24 11:40:42;;;;;;;9.75;5.60;;;17.90;99.90;;;;;;5091808;28;20123;-62
2022/06/24 11:43:13;;;;;;;9.98;5.90;;;18.10;99.90;;;;;;5091126;28;20047;-61
2022/06/24 11:45:47;;;;;;;10.88;6.97;;;18.20;99.90;;;;;;5087091;28;20486;-71
2022/06/24 11:48:20;;;;;;;8.45;6.10;;;17.90;99.90;;;;;;5087754;28;20062;-63
2022/06/24 11:50:46;;;;;;;8.32;6.22;;;18.10;99.90;;;;;;5091486;28;20048;-60
2022/06/24 11:53:12;;;;;;;11.25;6.93;;;18.10;99.90;;;;;;5092910;28;20044;-60
2022/06/24 11:55:39;;;;;;;10.38;6.63;;;18.20;99.90;;;;;;5092743;28;20715;-61
2022/06/24 11:58:07;;;;;;;12.15;6.38;;;18.40;99.90;;;;;;5093147;28;20403;-62
2022/06/24 12:00:38;;;;;;;9.57;7.05;;;18.30;99.90;;;;;;5087711;28;20048;-72
2022/06/24 12:03:07;;;;;;;9.55;6.47;;;18.20;99.90;;;;;;5088003;28;20525;-63
2022/06/24 12:05:33;;;;;;;9.30;6.75;;;18.30;99.90;;;;;;5091222;28;20048;-61
2022/06/24 12:08:01;;;;;;;13.25;7.35;;;18.30;99.90;;;;;;5092586;28;20100;-61
2022/06/24 12:10:27;;;;;;;14.20;8.48;;;18.10;99.90;;;;;;5092560;28;20048;-61
2022/06/24 12:12:57;;;;;;;16.00;8.35;;;17.90;99.90;;;;;;5092315;28;20551;-61
2022/06/24 12:15:25;;;;;;;18.83;8.73;;;18.10;99.90;;;;;;5092477;28;20214;-61
2022/06/24 12:17:54;;;;;;;11.52;7.72;;;18.20;99.90;;;;;;5092199;28;20500;-62
2022/06/24 12:20:25;;;;;;;19.02;9.15;;;18.20;99.90;;;;;;5092495;28;20085;-62
2022/06/24 12:23:20;;;;;;;15.00;9.05;;;18.80;99.90;;;;;;5092426;28;20056;-63
2022/06/24 12:25:48;;;;;;;16.15;9.10;;;18.30;99.90;;;;;;5091071;28;20052;-66
2022/06/24 12:28:27;;;;;;;13.35;7.65;;;18.60;99.90;;;;;;5092355;28;20055;-64
2022/06/24 12:31:04;;;;;;;17.10;7.90;;;18.30;99.90;;;;;;5092699;28;20055;-63
2022/06/24 12:33:33;;;;;;;15.80;7.55;;;18.60;99.90;;;;;;5092428;28;20048;-63
2022/06/24 12:36:10;;;;;;;13.80;7.88;;;18.50;99.90;;;;;;5092190;28;20063;-65
2022/06/24 12:38:38;;;;;;;11.43;7.13;;;19.00;99.90;;;;;;5092311;28;20131;-63
2022/06/24 12:41:11;;;;;;;10.18;7.18;;;18.90;99.90;;;;;;5092204;28;20407;-64
2022/06/24 12:44:01;;;;;;;12.43;6.60;;;18.70;99.90;;;;;;5084917;28;20100;-64
2022/06/24 12:46:38;;;;;;;14.60;5.88;;;19.20;99.90;;;;;;5087134;28;20040;-66
2022/06/24 12:51:59;;;;;;;12.68;6.05;;;19.10;99.90;;;;;;5086736;28;20139;-65
2022/06/24 12:54:24;;;;;;;12.30;5.90;;;19.00;99.90;;;;;;5090593;28;20056;-64
2022/06/24 12:56:51;;;;;;;10.38;6.50;;;18.90;99.90;;;;;;5090381;28;20152;-66
2022/06/24 12:59:16;;;;;;;8.00;5.50;;;19.50;99.90;;;;;;5088818;28;20054;-66
2022/06/24 13:01:46;;;;;;;8.93;5.32;;;19.70;99.90;;;;;;5090477;28;20067;-64